sensor_id;sensor_type;location;lat;lon;timestamp;pressure;altitude;pressure_sealevel;temperature;humidity
15914;BME280;8055;51.930;8.840;2023-11-19T00:01:07;75872.28;;;-145.72;100.00
15914;BME280;8055;51.930;8.840;2023-11-19T00:03:33;75855.72;;;-145.72;100.00
15914;BME280;8055;51.930;8.840;2023-11-19T00:05:59;75830.91;;;-145.72;100.00
15914;BME280;8055;51.930;8.840;2023-11-19T00:08:24;75837.09;;;-145.72;100.00
15914;BME280;8055;51.930;8.840;2023-11-19T00:10:50;75832.97;;;-145.72;100.00
15914;BME280;8055;51.930;8.840;2023-11-19T00:13:16;75832.97;;;-145.72;100.00
15914;BME280;8055;51.930;8.840;2023-11-19T00:15:42;75822.63;;;-145.72;100.00
15914;BME280;8055;51.930;8.840;2023-11-19T00:18:07;75830.91;;;-145.72;100.00
15914;BME280;8055;51.930;8.840;2023-11-19T00:20:33;75818.47;;;-145.72;100.00
15914;BME280;8055;51.930;8.840;2023-11-19T00:22:58;75818.47;;;-145.72;100.00
15914;BME280;8055;51.930;8.840;2023-11-19T00:25:24;75812.28;;;-145.72;100.00
15914;BME280;8055;51.930;8.840;2023-11-19T00:27:51;75804.00;;;-145.72;100.00
15914;BME280;8055;51.930;8.840;2023-11-19T00:30:16;75810.22;;;-145.72;100.00
15914;BME280;8055;51.930;8.840;2023-11-19T00:32:42;75806.06;;;-145.72;100.00
15914;BME280;8055;51.930;8.840;2023-11-19T00:35:08;75797.78;;;-145.72;100.00
15914;BME280;8055;51.930;8.840;2023-11-19T00:37:35;75783.31;;;-145.72;100.00
15914;BME280;8055;51.930;8.840;2023-11-19T00:40:01;75777.09;;;-145.72;100.00
15914;BME280;8055;51.930;8.840;2023-11-19T00:42:26;75764.69;;;-145.72;100.00
15914;BME280;8055;51.930;8.840;2023-11-19T00:44:52;75756.41;;;-145.72;100.00
15914;BME280;8055;51.930;8.840;2023-11-19T00:47:17;75735.72;;;-145.72;100.00
15914;BME280;8055;51.930;8.840;2023-11-19T00:49:49;75733.66;;;-145.72;100.00
15914;BME280;8055;51.930;8.840;2023-11-19T00:52:15;75727.44;;;-145.72;100.00
15914;BME280;8055;51.930;8.840;2023-11-19T00:54:41;75721.22;;;-145.72;100.00
15914;BME280;8055;51.930;8.840;2023-11-19T00:57:06;75719.16;;;-145.72;100.00
15914;BME280;8055;51.930;8.840;2023-11-19T00:59:32;75708.81;;;-145.72;100.00
15914;BME280;8055;51.930;8.840;2023-11-19T01:01:58;75710.88;;;-145.72;100.00
15914;BME280;8055;51.930;8.840;2023-11-19T01:04:24;75710.88;;;-145.72;100.00
15914;BME280;8055;51.930;8.840;2023-11-19T01:06:49;75681.91;;;-145.72;100.00
15914;BME280;8055;51.930;8.840;2023-11-19T01:09:15;75681.91;;;-145.72;100.00
15914;BME280;8055;51.930;8.840;2023-11-19T01:11:40;75673.63;;;-145.72;100.00
15914;BME280;8055;51.930;8.840;2023-11-19T01:14:06;75675.72;;;-145.72;100.00
15914;BME280;8055;51.930;8.840;2023-11-19T01:16:31;75667.44;;;-145.72;100.00
15914;BME280;8055;51.930;8.840;2023-11-19T01:18:56;75686.06;;;-145.72;100.00
15914;BME280;8055;51.930;8.840;2023-11-19T01:21:22;75688.13;;;-145.72;100.00
15914;BME280;8055;51.930;8.840;2023-11-19T01:23:47;75675.72;;;-145.72;100.00
15914;BME280;8055;51.930;8.840;2023-11-19T01:26:13;75677.78;;;-145.72;100.00
15914;BME280;8055;51.930;8.840;2023-11-19T01:28:41;75681.91;;;-145.72;100.00
15914;BME280;8055;51.930;8.840;2023-11-19T01:31:12;75677.78;;;-145.72;100.00
15914;BME280;8055;51.930;8.840;2023-11-19T01:33:39;75667.44;;;-145.72;100.00
15914;BME280;8055;51.930;8.840;2023-11-19T01:36:06;75659.16;;;-145.72;100.00
15914;BME280;8055;51.930;8.840;2023-11-19T01:38:33;75648.81;;;-145.72;100.00
15914;BME280;8055;51.930;8.840;2023-11-19T01:40:59;75638.47;;;-145.72;100.00
15914;BME280;8055;51.930;8.840;2023-11-19T01:43:39;75640.53;;;-145.72;100.00
15914;BME280;8055;51.930;8.840;2023-11-19T01:46:07;75634.31;;;-145.72;100.00
15914;BME280;8055;51.930;8.840;2023-11-19T01:48:40;75640.53;;;-145.72;100.00
15914;BME280;8055;51.930;8.840;2023-11-19T01:51:07;75615.69;;;-145.72;100.00
15914;BME280;8055;51.930;8.840;2023-11-19T01:53:34;75623.97;;;-145.72;100.00
15914;BME280;8055;51.930;8.840;2023-11-19T01:56:01;75607.44;;;-145.72;100.00
15914;BME280;8055;51.930;8.840;2023-11-19T01:58:27;75599.16;;;-145.72;100.00
15914;BME280;8055;51.930;8.840;2023-11-19T02:00:55;75603.28;;;-145.72;100.00
15914;BME280;8055;51.930;8.840;2023-11-19T02:03:21;75592.94;;;-145.72;100.00
15914;BME280;8055;51.930;8.840;2023-11-19T02:05:48;75584.66;;;-145.72;100.00
15914;BME280;8055;51.930;8.840;2023-11-19T02:08:14;75584.66;;;-145.72;100.00
15914;BME280;8055;51.930;8.840;2023-11-19T02:10:39;75590.88;;;-145.72;100.00
15914;BME280;8055;51.930;8.840;2023-11-19T02:13:05;75574.31;;;-145.72;100.00
15914;BME280;8055;51.930;8.840;2023-11-19T02:15:32;75568.13;;;-145.72;100.00
15914;BME280;8055;51.930;8.840;2023-11-19T02:18:17;75559.84;;;-145.72;100.00
15914;BME280;8055;51.930;8.840;2023-11-19T02:20:43;75551.56;;;-145.72;100.00
15914;BME280;8055;51.930;8.840;2023-11-19T02:23:09;75555.69;;;-145.72;100.00
15914;BME280;8055;51.930;8.840;2023-11-19T02:25:35;75553.63;;;-145.72;100.00
15914;BME280;8055;51.930;8.840;2023-11-19T02:28:02;75555.69;;;-145.72;100.00
15914;BME280;8055;51.930;8.840;2023-11-19T02:30:28;75547.41;;;-145.72;100.00
15914;BME280;8055;51.930;8.840;2023-11-19T02:33:03;75541.22;;;-145.72;100.00
15914;BME280;8055;51.930;8.840;2023-11-19T02:35:31;75537.06;;;-145.72;100.00
15914;BME280;8055;51.930;8.840;2023-11-19T02:37:57;75539.16;;;-145.72;100.00
15914;BME280;8055;51.930;8.840;2023-11-19T02:40:24;75535.00;;;-145.72;100.00
15914;BME280;8055;51.930;8.840;2023-11-19T02:42:50;75518.44;;;-145.72;100.00
15914;BME280;8055;51.930;8.840;2023-11-19T02:45:16;75514.31;;;-145.72;100.00
15914;BME280;8055;51.930;8.840;2023-11-19T02:47:42;75489.50;;;-145.72;100.00
15914;BME280;8055;51.930;8.840;2023-11-19T02:50:08;75470.88;;;-145.72;100.00
15914;BME280;8055;51.930;8.840;2023-11-19T02:52:43;75479.13;;;-145.72;100.00
15914;BME280;8055;51.930;8.840;2023-11-19T02:55:11;75468.78;;;-145.72;100.00
15914;BME280;8055;51.930;8.840;2023-11-19T02:57:40;75477.06;;;-145.72;100.00
15914;BME280;8055;51.930;8.840;2023-11-19T03:00:13;75468.78;;;-145.72;100.00
15914;BME280;8055;51.930;8.840;2023-11-19T03:02:40;75454.31;;;-145.72;100.00
15914;BME280;8055;51.930;8.840;2023-11-19T03:05:11;75460.53;;;-145.72;100.00
15914;BME280;8055;51.930;8.840;2023-11-19T03:07:37;75460.53;;;-145.72;100.00
15914;BME280;8055;51.930;8.840;2023-11-19T03:10:04;75448.09;;;-145.72;100.00
15914;BME280;8055;51.930;8.840;2023-11-19T03:12:32;75433.63;;;-145.72;100.00
15914;BME280;8055;51.930;8.840;2023-11-19T03:14:57;75425.34;;;-145.72;100.00
15914;BME280;8055;51.930;8.840;2023-11-19T03:17:22;75423.28;;;-145.72;100.00
15914;BME280;8055;51.930;8.840;2023-11-19T03:19:49;75412.94;;;-145.72;100.00
15914;BME280;8055;51.930;8.840;2023-11-19T03:22:14;75417.06;;;-145.72;100.00
15914;BME280;8055;51.930;8.840;2023-11-19T03:24:40;75406.72;;;-145.72;100.00
15914;BME280;8055;51.930;8.840;2023-11-19T03:27:05;75402.59;;;-145.72;100.00
15914;BME280;8055;51.930;8.840;2023-11-19T03:29:30;75406.72;;;-145.72;100.00
15914;BME280;8055;51.930;8.840;2023-11-19T03:31:56;75383.97;;;-145.72;100.00
15914;BME280;8055;51.930;8.840;2023-11-19T03:34:21;75390.16;;;-145.72;100.00
15914;BME280;8055;51.930;8.840;2023-11-19T03:36:47;75394.31;;;-145.72;100.00
15914;BME280;8055;51.930;8.840;2023-11-19T03:39:12;75390.16;;;-145.72;100.00
15914;BME280;8055;51.930;8.840;2023-11-19T03:41:37;75386.03;;;-145.72;100.00
15914;BME280;8055;51.930;8.840;2023-11-19T03:44:03;75390.16;;;-145.72;100.00
15914;BME280;8055;51.930;8.840;2023-11-19T03:46:28;75390.16;;;-145.72;100.00
15914;BME280;8055;51.930;8.840;2023-11-19T03:48:55;75375.69;;;-145.72;100.00
15914;BME280;8055;51.930;8.840;2023-11-19T03:51:20;75381.91;;;-145.72;100.00
15914;BME280;8055;51.930;8.840;2023-11-19T03:53:46;75381.91;;;-145.72;100.00
15914;BME280;8055;51.930;8.840;2023-11-19T03:56:11;75371.56;;;-145.72;100.00
15914;BME280;8055;51.930;8.840;2023-11-19T03:58:38;75361.22;;;-145.72;100.00
15914;BME280;8055;51.930;8.840;2023-11-19T04:01:12;75361.22;;;-145.72;100.00
15914;BME280;8055;51.930;8.840;2023-11-19T04:03:41;75375.69;;;-145.72;100.00
15914;BME280;8055;51.930;8.840;2023-11-19T04:06:06;75357.06;;;-145.72;100.00
15914;BME280;8055;51.930;8.840;2023-11-19T04:08:32;75357.06;;;-145.72;100.00
15914;BME280;8055;51.930;8.840;2023-11-19T04:10:57;75367.41;;;-145.72;100.00
15914;BME280;8055;51.930;8.840;2023-11-19T04:13:23;75363.28;;;-145.72;100.00
15914;BME280;8055;51.930;8.840;2023-11-19T04:15:50;75361.22;;;-145.72;100.00
15914;BME280;8055;51.930;8.840;2023-11-19T04:18:15;75355.00;;;-145.72;100.00
15914;BME280;8055;51.930;8.840;2023-11-19T04:20:41;75361.22;;;-145.72;100.00
15914;BME280;8055;51.930;8.840;2023-11-19T04:23:08;75363.28;;;-145.72;100.00
15914;BME280;8055;51.930;8.840;2023-11-19T04:25:33;75361.22;;;-145.72;100.00
15914;BME280;8055;51.930;8.840;2023-11-19T04:27:58;75367.41;;;-145.72;100.00
15914;BME280;8055;51.930;8.840;2023-11-19T04:30:24;75342.59;;;-145.72;100.00
15914;BME280;8055;51.930;8.840;2023-11-19T04:32:49;75340.50;;;-145.72;100.00
15914;BME280;8055;51.930;8.840;2023-11-19T04:35:15;75344.66;;;-145.72;100.00
15914;BME280;8055;51.930;8.840;2023-11-19T04:37:41;75342.59;;;-145.72;100.00
15914;BME280;8055;51.930;8.840;2023-11-19T04:40:07;75342.59;;;-145.72;100.00
15914;BME280;8055;51.930;8.840;2023-11-19T04:42:32;75344.66;;;-145.72;100.00
15914;BME280;8055;51.930;8.840;2023-11-19T04:44:58;75336.38;;;-145.72;100.00
15914;BME280;8055;51.930;8.840;2023-11-19T04:47:23;75338.44;;;-145.72;100.00
15914;BME280;8055;51.930;8.840;2023-11-19T04:49:48;75336.38;;;-145.72;100.00
15914;BME280;8055;51.930;8.840;2023-11-19T04:52:14;75332.25;;;-145.72;100.00
15914;BME280;8055;51.930;8.840;2023-11-19T04:54:45;75344.66;;;-145.72;100.00
15914;BME280;8055;51.930;8.840;2023-11-19T04:57:10;75350.88;;;-145.72;100.00
15914;BME280;8055;51.930;8.840;2023-11-19T04:59:36;75359.13;;;-145.72;100.00
15914;BME280;8055;51.930;8.840;2023-11-19T05:02:02;75350.88;;;-145.72;100.00
15914;BME280;8055;51.930;8.840;2023-11-19T05:04:29;75357.06;;;-145.72;100.00
15914;BME280;8055;51.930;8.840;2023-11-19T05:06:54;75342.59;;;-145.72;100.00
15914;BME280;8055;51.930;8.840;2023-11-19T05:09:20;75334.31;;;-145.72;100.00
15914;BME280;8055;51.930;8.840;2023-11-19T05:11:45;75340.50;;;-145.72;100.00
15914;BME280;8055;51.930;8.840;2023-11-19T05:14:11;75352.94;;;-145.72;100.00
15914;BME280;8055;51.930;8.840;2023-11-19T05:16:39;75355.00;;;-145.72;100.00
15914;BME280;8055;51.930;8.840;2023-11-19T05:19:04;75357.06;;;-145.72;100.00
15914;BME280;8055;51.930;8.840;2023-11-19T05:21:30;75371.56;;;-145.72;100.00
15914;BME280;8055;51.930;8.840;2023-11-19T05:23:55;75379.81;;;-145.72;100.00
15914;BME280;8055;51.930;8.840;2023-11-19T05:26:23;75375.69;;;-145.72;100.00
15914;BME280;8055;51.930;8.840;2023-11-19T05:28:49;75379.81;;;-145.72;100.00
15914;BME280;8055;51.930;8.840;2023-11-19T05:31:16;75377.75;;;-145.72;100.00
15914;BME280;8055;51.930;8.840;2023-11-19T05:33:41;75381.91;;;-145.72;100.00
15914;BME280;8055;51.930;8.840;2023-11-19T05:36:07;75383.97;;;-145.72;100.00
15914;BME280;8055;51.930;8.840;2023-11-19T05:38:36;75375.69;;;-145.72;100.00
15914;BME280;8055;51.930;8.840;2023-11-19T05:41:02;75365.34;;;-145.72;100.00
15914;BME280;8055;51.930;8.840;2023-11-19T05:43:27;75363.28;;;-145.72;100.00
15914;BME280;8055;51.930;8.840;2023-11-19T05:45:53;75357.06;;;-145.72;100.00
15914;BME280;8055;51.930;8.840;2023-11-19T05:48:18;75365.34;;;-145.72;100.00
15914;BME280;8055;51.930;8.840;2023-11-19T05:50:44;75373.63;;;-145.72;100.00
15914;BME280;8055;51.930;8.840;2023-11-19T05:53:09;75377.75;;;-145.72;100.00
15914;BME280;8055;51.930;8.840;2023-11-19T05:55:38;75377.75;;;-145.72;100.00
15914;BME280;8055;51.930;8.840;2023-11-19T05:58:11;75373.63;;;-145.72;100.00
15914;BME280;8055;51.930;8.840;2023-11-19T06:00:40;75377.75;;;-145.72;100.00
15914;BME280;8055;51.930;8.840;2023-11-19T06:03:07;75369.47;;;-145.72;100.00
15914;BME280;8055;51.930;8.840;2023-11-19T06:05:33;75379.81;;;-145.72;100.00
15914;BME280;8055;51.930;8.840;2023-11-19T06:07:58;75373.63;;;-145.72;100.00
15914;BME280;8055;51.930;8.840;2023-11-19T06:10:24;75386.03;;;-145.72;100.00
15914;BME280;8055;51.930;8.840;2023-11-19T06:13:00;75379.81;;;-145.72;100.00
15914;BME280;8055;51.930;8.840;2023-11-19T06:15:30;75388.09;;;-145.72;100.00
15914;BME280;8055;51.930;8.840;2023-11-19T06:17:55;75377.75;;;-145.72;100.00
15914;BME280;8055;51.930;8.840;2023-11-19T06:20:20;75383.97;;;-145.72;100.00
15914;BME280;8055;51.930;8.840;2023-11-19T06:22:46;75377.75;;;-145.72;100.00
15914;BME280;8055;51.930;8.840;2023-11-19T06:25:12;75390.16;;;-145.72;100.00
15914;BME280;8055;51.930;8.840;2023-11-19T06:27:40;75394.31;;;-145.72;100.00
15914;BME280;8055;51.930;8.840;2023-11-19T06:30:06;75398.44;;;-145.72;100.00
15914;BME280;8055;51.930;8.840;2023-11-19T06:32:32;75406.72;;;-145.72;100.00
15914;BME280;8055;51.930;8.840;2023-11-19T06:34:57;75421.22;;;-145.72;100.00
15914;BME280;8055;51.930;8.840;2023-11-19T06:37:23;75415.00;;;-145.72;100.00
15914;BME280;8055;51.930;8.840;2023-11-19T06:39:48;75402.59;;;-145.72;100.00
15914;BME280;8055;51.930;8.840;2023-11-19T06:42:14;75419.13;;;-145.72;100.00
15914;BME280;8055;51.930;8.840;2023-11-19T06:44:39;75433.63;;;-145.72;100.00
15914;BME280;8055;51.930;8.840;2023-11-19T06:47:05;75437.75;;;-145.72;100.00
15914;BME280;8055;51.930;8.840;2023-11-19T06:49:30;75437.75;;;-145.72;100.00
15914;BME280;8055;51.930;8.840;2023-11-19T06:51:56;75433.63;;;-145.72;100.00
15914;BME280;8055;51.930;8.840;2023-11-19T06:54:22;75441.91;;;-145.72;100.00
15914;BME280;8055;51.930;8.840;2023-11-19T06:56:48;75427.41;;;-145.72;100.00
15914;BME280;8055;51.930;8.840;2023-11-19T06:59:14;75415.00;;;-145.72;100.00
15914;BME280;8055;51.930;8.840;2023-11-19T07:01:39;75427.41;;;-145.72;100.00
15914;BME280;8055;51.930;8.840;2023-11-19T07:04:08;75425.34;;;-145.72;100.00
15914;BME280;8055;51.930;8.840;2023-11-19T07:06:35;75439.81;;;-145.72;100.00
15914;BME280;8055;51.930;8.840;2023-11-19T07:09:01;75443.97;;;-145.72;100.00
15914;BME280;8055;51.930;8.840;2023-11-19T07:11:38;75448.09;;;-145.72;100.00
15914;BME280;8055;51.930;8.840;2023-11-19T07:14:04;75443.97;;;-145.72;100.00
15914;BME280;8055;51.930;8.840;2023-11-19T07:16:31;75439.81;;;-145.72;100.00
15914;BME280;8055;51.930;8.840;2023-11-19T07:18:56;75456.38;;;-145.72;100.00
15914;BME280;8055;51.930;8.840;2023-11-19T07:21:21;75454.31;;;-145.72;100.00
15914;BME280;8055;51.930;8.840;2023-11-19T07:23:47;75443.97;;;-145.72;100.00
15914;BME280;8055;51.930;8.840;2023-11-19T07:26:12;75452.25;;;-145.72;100.00
15914;BME280;8055;51.930;8.840;2023-11-19T07:28:38;75443.97;;;-145.72;100.00
15914;BME280;8055;51.930;8.840;2023-11-19T07:31:05;75458.44;;;-145.72;100.00
15914;BME280;8055;51.930;8.840;2023-11-19T07:33:33;75458.44;;;-145.72;100.00
15914;BME280;8055;51.930;8.840;2023-11-19T07:35:58;75458.44;;;-145.72;100.00
15914;BME280;8055;51.930;8.840;2023-11-19T07:38:24;75450.19;;;-145.72;100.00
15914;BME280;8055;51.930;8.840;2023-11-19T07:40:49;75425.34;;;-145.72;100.00
15914;BME280;8055;51.930;8.840;2023-11-19T07:43:15;75425.34;;;-145.72;100.00
15914;BME280;8055;51.930;8.840;2023-11-19T07:45:40;75431.56;;;-145.72;100.00
15914;BME280;8055;51.930;8.840;2023-11-19T07:48:10;75431.56;;;-145.72;100.00
15914;BME280;8055;51.930;8.840;2023-11-19T07:50:36;75433.63;;;-145.72;100.00
15914;BME280;8055;51.930;8.840;2023-11-19T07:53:01;75443.97;;;-145.72;100.00
15914;BME280;8055;51.930;8.840;2023-11-19T07:55:29;75456.38;;;-145.72;100.00
15914;BME280;8055;51.930;8.840;2023-11-19T07:57:55;75458.44;;;-145.72;100.00
15914;BME280;8055;51.930;8.840;2023-11-19T08:00:21;75456.38;;;-145.72;100.00
15914;BME280;8055;51.930;8.840;2023-11-19T08:02:46;75452.25;;;-145.72;100.00
15914;BME280;8055;51.930;8.840;2023-11-19T08:05:11;75452.25;;;-145.72;100.00
15914;BME280;8055;51.930;8.840;2023-11-19T08:07:37;75462.59;;;-145.72;100.00
15914;BME280;8055;51.930;8.840;2023-11-19T08:10:03;75462.59;;;-145.72;100.00
15914;BME280;8055;51.930;8.840;2023-11-19T08:12:30;75452.25;;;-145.72;100.00
15914;BME280;8055;51.930;8.840;2023-11-19T08:14:56;75452.25;;;-145.72;100.00
15914;BME280;8055;51.930;8.840;2023-11-19T08:17:23;75446.03;;;-145.72;100.00
15914;BME280;8055;51.930;8.840;2023-11-19T08:19:49;75452.25;;;-145.72;100.00
15914;BME280;8055;51.930;8.840;2023-11-19T08:22:14;75458.44;;;-145.72;100.00
15914;BME280;8055;51.930;8.840;2023-11-19T08:24:40;75475.00;;;-145.72;100.00
15914;BME280;8055;51.930;8.840;2023-11-19T08:27:05;75475.00;;;-145.72;100.00
15914;BME280;8055;51.930;8.840;2023-11-19T08:29:31;75479.13;;;-145.72;100.00
15914;BME280;8055;51.930;8.840;2023-11-19T08:31:56;75468.78;;;-145.72;100.00
15914;BME280;8055;51.930;8.840;2023-11-19T08:34:21;75462.59;;;-145.72;100.00
15914;BME280;8055;51.930;8.840;2023-11-19T08:36:50;75460.53;;;-145.72;100.00
15914;BME280;8055;51.930;8.840;2023-11-19T08:39:16;75456.38;;;-145.72;100.00
15914;BME280;8055;51.930;8.840;2023-11-19T08:41:42;75468.78;;;-145.72;100.00
15914;BME280;8055;51.930;8.840;2023-11-19T08:44:07;75458.44;;;-145.72;100.00
15914;BME280;8055;51.930;8.840;2023-11-19T08:46:32;75452.25;;;-145.72;100.00
15914;BME280;8055;51.930;8.840;2023-11-19T08:48:58;75456.38;;;-145.72;100.00
15914;BME280;8055;51.930;8.840;2023-11-19T08:51:24;75450.19;;;-145.72;100.00
15914;BME280;8055;51.930;8.840;2023-11-19T08:53:50;75458.44;;;-145.72;100.00
15914;BME280;8055;51.930;8.840;2023-11-19T08:56:15;75448.09;;;-145.72;100.00
15914;BME280;8055;51.930;8.840;2023-11-19T08:58:40;75429.47;;;-145.72;100.00
15914;BME280;8055;51.930;8.840;2023-11-19T09:01:06;75425.34;;;-145.72;100.00
15914;BME280;8055;51.930;8.840;2023-11-19T09:03:31;75441.91;;;-145.72;100.00
15914;BME280;8055;51.930;8.840;2023-11-19T09:05:57;75437.75;;;-145.72;100.00
15914;BME280;8055;51.930;8.840;2023-11-19T09:08:22;75425.34;;;-145.72;100.00
15914;BME280;8055;51.930;8.840;2023-11-19T09:10:48;75446.03;;;-145.72;100.00
15914;BME280;8055;51.930;8.840;2023-11-19T09:13:13;75441.91;;;-145.72;100.00
15914;BME280;8055;51.930;8.840;2023-11-19T09:15:39;75460.53;;;-145.72;100.00
15914;BME280;8055;51.930;8.840;2023-11-19T09:18:04;75458.44;;;-145.72;100.00
15914;BME280;8055;51.930;8.840;2023-11-19T09:20:30;75470.88;;;-145.72;100.00
15914;BME280;8055;51.930;8.840;2023-11-19T09:23:03;75481.22;;;-145.72;100.00
15914;BME280;8055;51.930;8.840;2023-11-19T09:25:28;75479.13;;;-145.72;100.00
15914;BME280;8055;51.930;8.840;2023-11-19T09:27:54;75481.22;;;-145.72;100.00
15914;BME280;8055;51.930;8.840;2023-11-19T09:30:19;75468.78;;;-145.72;100.00
15914;BME280;8055;51.930;8.840;2023-11-19T09:32:45;75468.78;;;-145.72;100.00
15914;BME280;8055;51.930;8.840;2023-11-19T09:35:10;75479.13;;;-145.72;100.00
15914;BME280;8055;51.930;8.840;2023-11-19T09:37:38;75485.34;;;-145.72;100.00
15914;BME280;8055;51.930;8.840;2023-11-19T09:40:05;75481.22;;;-145.72;100.00
15914;BME280;8055;51.930;8.840;2023-11-19T09:42:45;75460.53;;;-145.72;100.00
15914;BME280;8055;51.930;8.840;2023-11-19T09:45:15;75470.88;;;-145.72;100.00
15914;BME280;8055;51.930;8.840;2023-11-19T09:47:43;75475.00;;;-145.72;100.00
15914;BME280;8055;51.930;8.840;2023-11-19T09:50:16;75454.31;;;-145.72;100.00
15914;BME280;8055;51.930;8.840;2023-11-19T09:52:42;75454.31;;;-145.72;100.00
15914;BME280;8055;51.930;8.840;2023-11-19T09:55:08;75454.31;;;-145.72;100.00
15914;BME280;8055;51.930;8.840;2023-11-19T09:57:34;75454.31;;;-145.72;100.00
15914;BME280;8055;51.930;8.840;2023-11-19T10:00:03;75462.59;;;-145.72;100.00
15914;BME280;8055;51.930;8.840;2023-11-19T10:02:31;75458.44;;;-145.72;100.00
15914;BME280;8055;51.930;8.840;2023-11-19T10:04:59;75439.81;;;-145.72;100.00
15914;BME280;8055;51.930;8.840;2023-11-19T10:07:28;75446.03;;;-145.72;100.00
15914;BME280;8055;51.930;8.840;2023-11-19T10:09:53;75443.97;;;-145.72;100.00
15914;BME280;8055;51.930;8.840;2023-11-19T10:12:19;75431.56;;;-145.72;100.00
15914;BME280;8055;51.930;8.840;2023-11-19T10:14:45;75425.34;;;-145.72;100.00
15914;BME280;8055;51.930;8.840;2023-11-19T10:17:12;75429.47;;;-145.72;100.00
15914;BME280;8055;51.930;8.840;2023-11-19T10:19:40;75410.88;;;-145.72;100.00
15914;BME280;8055;51.930;8.840;2023-11-19T10:22:07;75402.59;;;-145.72;100.00
15914;BME280;8055;51.930;8.840;2023-11-19T10:24:33;75400.50;;;-145.72;100.00
15914;BME280;8055;51.930;8.840;2023-11-19T10:27:00;75386.03;;;-145.72;100.00
15914;BME280;8055;51.930;8.840;2023-11-19T10:29:26;75375.69;;;-145.72;100.00
15914;BME280;8055;51.930;8.840;2023-11-19T10:31:58;75365.34;;;-145.72;100.00
15914;BME280;8055;51.930;8.840;2023-11-19T10:34:25;75350.88;;;-145.72;100.00
15914;BME280;8055;51.930;8.840;2023-11-19T10:36:51;75352.94;;;-145.72;100.00
15914;BME280;8055;51.930;8.840;2023-11-19T10:39:17;75340.50;;;-145.72;100.00
15914;BME280;8055;51.930;8.840;2023-11-19T10:41:43;75344.66;;;-145.72;100.00
15914;BME280;8055;51.930;8.840;2023-11-19T10:44:08;75361.22;;;-145.72;100.00
15914;BME280;8055;51.930;8.840;2023-11-19T10:46:41;75367.41;;;-145.72;100.00
15914;BME280;8055;51.930;8.840;2023-11-19T10:49:07;75375.69;;;-145.72;100.00
15914;BME280;8055;51.930;8.840;2023-11-19T10:51:33;75386.03;;;-145.72;100.00
15914;BME280;8055;51.930;8.840;2023-11-19T10:54:03;75388.09;;;-145.72;100.00
15914;BME280;8055;51.930;8.840;2023-11-19T10:56:33;75379.81;;;-145.72;100.00
15914;BME280;8055;51.930;8.840;2023-11-19T10:58:59;75381.91;;;-145.72;100.00
15914;BME280;8055;51.930;8.840;2023-11-19T11:01:27;75365.34;;;-145.72;100.00
15914;BME280;8055;51.930;8.840;2023-11-19T11:03:57;75359.13;;;-145.72;100.00
15914;BME280;8055;51.930;8.840;2023-11-19T11:06:24;75365.34;;;-145.72;100.00
15914;BME280;8055;51.930;8.840;2023-11-19T11:08:51;75367.41;;;-145.72;100.00
15914;BME280;8055;51.930;8.840;2023-11-19T11:11:17;75365.34;;;-145.72;100.00
15914;BME280;8055;51.930;8.840;2023-11-19T11:13:47;75363.28;;;-145.72;100.00
15914;BME280;8055;51.930;8.840;2023-11-19T11:16:13;75361.22;;;-145.72;100.00
15914;BME280;8055;51.930;8.840;2023-11-19T11:18:39;75355.00;;;-145.72;100.00
15914;BME280;8055;51.930;8.840;2023-11-19T11:29:40;75338.44;;;-145.72;100.00
15914;BME280;8055;51.930;8.840;2023-11-19T11:37:49;75328.09;;;-145.72;100.00
15914;BME280;8055;51.930;8.840;2023-11-19T11:40:16;75303.28;;;-145.72;100.00
15914;BME280;8055;51.930;8.840;2023-11-19T11:42:43;75313.63;;;-145.72;100.00
15914;BME280;8055;51.930;8.840;2023-11-19T11:45:13;75326.03;;;-145.72;100.00
15914;BME280;8055;51.930;8.840;2023-11-19T11:58:30;75305.34;;;-145.72;100.00
15914;BME280;8055;51.930;8.840;2023-11-19T12:00:59;75321.91;;;-145.72;100.00
15914;BME280;8055;51.930;8.840;2023-11-19T12:03:28;75313.63;;;-145.72;100.00
15914;BME280;8055;51.930;8.840;2023-11-19T12:05:54;75323.97;;;-145.72;100.00
15914;BME280;8055;51.930;8.840;2023-11-19T12:08:25;75309.47;;;-145.72;100.00
15914;BME280;8055;51.930;8.840;2023-11-19T12:10:52;75330.16;;;-145.72;100.00
15914;BME280;8055;51.930;8.840;2023-11-19T12:13:19;75344.66;;;-145.72;100.00
15914;BME280;8055;51.930;8.840;2023-11-19T12:18:27;75348.78;;;-145.72;100.00
15914;BME280;8055;51.930;8.840;2023-11-19T12:20:54;75357.06;;;-145.72;100.00
15914;BME280;8055;51.930;8.840;2023-11-19T12:23:19;75352.94;;;-145.72;100.00
15914;BME280;8055;51.930;8.840;2023-11-19T12:25:44;75348.78;;;-145.72;100.00
15914;BME280;8055;51.930;8.840;2023-11-19T12:28:13;75350.88;;;-145.72;100.00
15914;BME280;8055;51.930;8.840;2023-11-19T12:30:39;75340.50;;;-145.72;100.00
15914;BME280;8055;51.930;8.840;2023-11-19T12:33:08;75317.75;;;-145.72;100.00
15914;BME280;8055;51.930;8.840;2023-11-19T12:35:41;75317.75;;;-145.72;100.00
15914;BME280;8055;51.930;8.840;2023-11-19T12:38:07;75309.47;;;-145.72;100.00
15914;BME280;8055;51.930;8.840;2023-11-19T12:40:32;75297.06;;;-145.72;100.00
15914;BME280;8055;51.930;8.840;2023-11-19T12:42:58;75288.78;;;-145.72;100.00
15914;BME280;8055;51.930;8.840;2023-11-19T12:45:34;75299.13;;;-145.72;100.00
15914;BME280;8055;51.930;8.840;2023-11-19T12:48:06;75288.78;;;-145.72;100.00
15914;BME280;8055;51.930;8.840;2023-11-19T12:50:52;75276.38;;;-145.72;100.00
15914;BME280;8055;51.930;8.840;2023-11-19T12:53:22;75278.44;;;-145.72;100.00
15914;BME280;8055;51.930;8.840;2023-11-19T12:55:48;75280.50;;;-145.72;100.00
15914;BME280;8055;51.930;8.840;2023-11-19T13:01:01;75270.16;;;-145.72;100.00
15914;BME280;8055;51.930;8.840;2023-11-19T13:03:32;75270.16;;;-145.72;100.00
15914;BME280;8055;51.930;8.840;2023-11-19T13:06:06;75278.44;;;-145.72;100.00
15914;BME280;8055;51.930;8.840;2023-11-19T13:08:42;75280.50;;;-145.72;100.00